Time;durP1;ratioP1;P1;durP2;ratioP2;P2;SDS_P1;SDS_P2;PMS_P1;PMS_P2;Temp;Humidity;BMP_temperature;BMP_pressure;BME280_temperature;BME280_humidity;BME280_pressure;Samples;Min_cycle;Max_cycle;Signal;HPM_P1;HPM_P2
2022/01/18 00:01:13;;;;;;;84.80;13.60;;;;;;;;;;4979735;28;92483;-70
2022/01/18 00:03:40;;;;;;;75.82;12.55;;;;;;;;;;4990764;28;93776;-70
2022/01/18 00:06:07;;;;;;;78.78;13.07;;;;;;;;;;4984224;28;93558;-70
2022/01/18 00:08:33;;;;;;;82.97;12.90;;;;;;;;;;4984027;28;94033;-70
2022/01/18 00:10:59;;;;;;;72.22;13.30;;;;;;;;;;4987097;28;93718;-70
2022/01/18 00:18:31;;;;;;;72.45;12.75;;;;;;;;;;4988004;28;95772;-70
2022/01/18 00:23:48;;;;;;;78.97;15.23;;;;;;;;;;4989525;28;93281;-70
2022/01/18 00:26:14;;;;;;;98.18;13.38;;;;;;;;;;4989239;28;93440;-70
2022/01/18 00:28:42;;;;;;;73.75;14.88;;;;;;;;;;4975528;28;93948;-70
2022/01/18 00:36:27;;;;;;;66.70;14.43;;;;;;;;;;4983302;28;93480;-70
2022/01/18 00:38:55;;;;;;;68.18;13.52;;;;;;;;;;4981343;28;94946;-70
2022/01/18 00:41:23;;;;;;;75.40;14.80;;;;;;;;;;4989323;28;92561;-69
2022/01/18 00:43:50;;;;;;;76.18;14.48;;;;;;;;;;4984960;28;95094;-69
2022/01/18 00:46:16;;;;;;;66.95;13.48;;;;;;;;;;4987448;28;93571;-69
2022/01/18 00:48:43;;;;;;;60.22;13.27;;;;;;;;;;4994549;28;92523;-69
2022/01/18 00:51:12;;;;;;;66.63;12.02;;;;;;;;;;4991989;28;93856;-69
2022/01/18 00:53:39;;;;;;;57.95;13.02;;;;;;;;;;4992630;28;92587;-69
2022/01/18 00:58:36;;;;;;;62.83;12.57;;;;;;;;;;4976310;28;94274;-70
2022/01/18 01:01:02;;;;;;;63.97;13.40;;;;;;;;;;4986792;28;91774;-69
2022/01/18 01:03:29;;;;;;;61.28;12.00;;;;;;;;;;4993201;28;93631;-69
2022/01/18 01:05:59;;;;;;;49.72;11.43;;;;;;;;;;4990112;28;93383;-69
2022/01/18 01:08:25;;;;;;;59.55;11.90;;;;;;;;;;4992445;28;95894;-69
2022/01/18 01:10:52;;;;;;;58.22;13.02;;;;;;;;;;4985041;28;95547;-69
2022/01/18 01:13:18;;;;;;;57.42;11.85;;;;;;;;;;4985277;28;93985;-69
2022/01/18 01:45:41;;;;;;;52.90;13.25;;;;;;;;;;4949011;28;95223;-69
2022/01/18 01:48:08;;;;;;;79.53;16.90;;;;;;;;;;4984527;28;96037;-70
2022/01/18 01:50:55;;;;;;;59.78;14.25;;;;;;;;;;4984436;28;93845;-70
2022/01/18 01:53:22;;;;;;;77.00;14.60;;;;;;;;;;4985499;28;93614;-70
2022/01/18 01:55:50;;;;;;;70.22;16.60;;;;;;;;;;4984683;28;93321;-70
2022/01/18 01:58:16;;;;;;;110.72;18.88;;;;;;;;;;4988121;28;92868;-70
2022/01/18 02:00:46;;;;;;;118.88;20.88;;;;;;;;;;4982405;28;96269;-70
2022/01/18 02:03:13;;;;;;;226.88;20.05;;;;;;;;;;4983470;28;94064;-70
2022/01/18 02:05:40;;;;;;;111.10;19.20;;;;;;;;;;4983786;28;94089;-70
2022/01/18 02:08:07;;;;;;;154.50;19.48;;;;;;;;;;4992804;28;93490;-70
2022/01/18 02:10:37;;;;;;;249.50;24.27;;;;;;;;;;4989341;28;92559;-70
2022/01/18 02:13:04;;;;;;;176.50;19.98;;;;;;;;;;4980799;28;94752;-70
2022/01/18 02:15:32;;;;;;;107.15;17.27;;;;;;;;;;4982789;28;93399;-70
2022/01/18 02:23:29;;;;;;;134.02;22.52;;;;;;;;;;4983427;28;92592;-69
2022/01/18 02:25:56;;;;;;;99.57;21.73;;;;;;;;;;4994174;28;96863;-69
2022/01/18 02:28:24;;;;;;;114.55;21.23;;;;;;;;;;4980325;28;94238;-69
2022/01/18 02:30:51;;;;;;;171.88;20.40;;;;;;;;;;4976602;28;92619;-70
2022/01/18 02:33:17;;;;;;;198.20;25.35;;;;;;;;;;4985546;28;93802;-70
2022/01/18 02:35:44;;;;;;;166.15;23.45;;;;;;;;;;4991598;28;93982;-70
2022/01/18 02:38:12;;;;;;;159.05;22.73;;;;;;;;;;4997016;28;93280;-69
2022/01/18 02:40:42;;;;;;;178.68;22.02;;;;;;;;;;4986192;28;94772;-69
2022/01/18 02:45:56;;;;;;;120.10;17.48;;;;;;;;;;4981174;28;93029;-69
2022/01/18 02:48:23;;;;;;;193.85;20.70;;;;;;;;;;4991485;28;94193;-69
2022/01/18 02:50:49;;;;;;;276.98;24.10;;;;;;;;;;4972201;28;94923;-69
2022/01/18 02:53:18;;;;;;;240.23;23.63;;;;;;;;;;4989012;28;98973;-69
2022/01/18 02:55:49;;;;;;;275.60;24.67;;;;;;;;;;4989266;28;94490;-70
2022/01/18 02:58:23;;;;;;;122.18;14.10;;;;;;;;;;4983689;28;92700;-70
2022/01/18 03:03:37;;;;;;;188.95;20.48;;;;;;;;;;4958912;28;93984;-70
2022/01/18 03:06:04;;;;;;;176.68;15.95;;;;;;;;;;4983795;28;94100;-70
2022/01/18 03:08:31;;;;;;;300.30;24.35;;;;;;;;;;4991768;28;94192;-70
2022/01/18 03:10:57;;;;;;;285.70;19.50;;;;;;;;;;4974282;28;92445;-70
2022/01/18 03:13:24;;;;;;;292.88;18.38;;;;;;;;;;4979958;28;93654;-70
2022/01/18 03:15:51;;;;;;;273.88;17.00;;;;;;;;;;4989026;28;96735;-70
2022/01/18 03:18:17;;;;;;;397.13;25.15;;;;;;;;;;4987770;28;92591;-70
2022/01/18 03:20:43;;;;;;;273.45;16.33;;;;;;;;;;4991582;28;94071;-70
2022/01/18 03:23:15;;;;;;;313.88;17.85;;;;;;;;;;4989485;28;93240;-70
2022/01/18 03:25:54;;;;;;;245.68;15.77;;;;;;;;;;4985040;28;92768;-69
2022/01/18 03:28:22;;;;;;;336.77;18.75;;;;;;;;;;4977539;28;93885;-69
2022/01/18 03:30:53;;;;;;;280.42;17.77;;;;;;;;;;4990895;28;93585;-69
2022/01/18 03:33:23;;;;;;;371.23;22.02;;;;;;;;;;4997171;28;96439;-69
2022/01/18 03:35:50;;;;;;;373.27;19.80;;;;;;;;;;4994196;28;94313;-70
2022/01/18 03:38:18;;;;;;;263.95;16.50;;;;;;;;;;4983076;28;94592;-70
2022/01/18 03:40:44;;;;;;;309.95;20.20;;;;;;;;;;4987911;28;94831;-70
2022/01/18 03:43:12;;;;;;;408.48;19.75;;;;;;;;;;4975224;28;96482;-70
2022/01/18 03:45:43;;;;;;;260.58;14.77;;;;;;;;;;4977957;28;92474;-70
2022/01/18 03:48:22;;;;;;;271.07;17.47;;;;;;;;;;5005994;28;93405;-70
2022/01/18 03:50:49;;;;;;;311.85;21.08;;;;;;;;;;4985411;28;93492;-70
2022/01/18 03:53:15;;;;;;;300.02;18.45;;;;;;;;;;4982529;28;94331;-69
2022/01/18 03:55:41;;;;;;;351.67;23.92;;;;;;;;;;4989994;28;93871;-70
2022/01/18 03:58:08;;;;;;;190.38;17.83;;;;;;;;;;4976531;28;92842;-69
2022/01/18 04:00:34;;;;;;;458.38;24.15;;;;;;;;;;4976166;28;93656;-69
2022/01/18 04:03:01;;;;;;;319.45;19.80;;;;;;;;;;4984995;28;93222;-69
2022/01/18 04:05:28;;;;;;;399.23;22.95;;;;;;;;;;4983410;28;95356;-69
2022/01/18 04:07:56;;;;;;;452.77;23.85;;;;;;;;;;4984017;28;96000;-70
2022/01/18 04:10:22;;;;;;;256.15;19.33;;;;;;;;;;4996152;28;94263;-70
2022/01/18 04:12:49;;;;;;;393.23;17.50;;;;;;;;;;4995381;28;94609;-69
2022/01/18 04:15:16;;;;;;;459.77;23.20;;;;;;;;;;4982242;28;93252;-69
2022/01/18 04:31:26;;;;;;;249.75;17.70;;;;;;;;;;4908052;28;97514;-70
2022/01/18 04:33:53;;;;;;;365.17;16.58;;;;;;;;;;4976614;28;93280;-70
2022/01/18 04:36:20;;;;;;;366.63;20.63;;;;;;;;;;4987168;28;93320;-70
2022/01/18 04:38:46;;;;;;;269.02;18.92;;;;;;;;;;4973259;28;92505;-70
2022/01/18 04:41:16;;;;;;;414.05;20.70;;;;;;;;;;4978312;28;94474;-70
2022/01/18 04:48:55;;;;;;;380.15;18.88;;;;;;;;;;4979942;28;93232;-70
2022/01/18 04:51:21;;;;;;;301.80;18.30;;;;;;;;;;4979542;28;94081;-70
2022/01/18 04:53:58;;;;;;;336.95;17.60;;;;;;;;;;4991991;28;92654;-70
2022/01/18 04:57:51;;;;;;;312.35;15.60;;;;;;;;;;4974883;28;96958;-70
2022/01/18 04:59:16;;;;;;;200.82;15.02;;;;;;;;;;4984316;28;92564;-70
2022/01/18 05:01:43;;;;;;;158.00;15.18;;;;;;;;;;4980616;28;94119;-69
2022/01/18 05:04:10;;;;;;;335.20;14.95;;;;;;;;;;4982593;28;94295;-70
2022/01/18 05:06:37;;;;;;;227.82;14.98;;;;;;;;;;4987276;28;92489;-70
2022/01/18 05:09:09;;;;;;;302.52;17.65;;;;;;;;;;4984186;28;93393;-70
2022/01/18 05:11:44;;;;;;;244.53;14.03;;;;;;;;;;4979670;28;94397;-69
2022/01/18 05:14:26;;;;;;;262.75;18.35;;;;;;;;;;4974633;28;91808;-69
2022/01/18 05:17:01;;;;;;;236.68;14.82;;;;;;;;;;4988345;28;92513;-69
2022/01/18 05:19:41;;;;;;;345.50;16.98;;;;;;;;;;4992950;28;92508;-69
2022/01/18 05:24:53;;;;;;;388.55;18.38;;;;;;;;;;4992477;28;93266;-69
2022/01/18 05:27:19;;;;;;;240.80;15.07;;;;;;;;;;4993859;28;92778;-70
2022/01/18 05:29:45;;;;;;;376.88;18.67;;;;;;;;;;4989501;28;94127;-70
2022/01/18 05:32:13;;;;;;;247.90;13.90;;;;;;;;;;4991804;28;94760;-69
2022/01/18 05:34:44;;;;;;;293.98;15.05;;;;;;;;;;4988301;28;93286;-70
2022/01/18 05:37:11;;;;;;;214.50;13.77;;;;;;;;;;4998661;28;93189;-70
2022/01/18 05:39:37;;;;;;;248.23;13.35;;;;;;;;;;5000128;28;93761;-70
2022/01/18 05:42:04;;;;;;;181.52;14.35;;;;;;;;;;4995194;28;93350;-70
2022/01/18 05:44:30;;;;;;;149.20;13.07;;;;;;;;;;4996139;28;93419;-70
2022/01/18 05:46:56;;;;;;;133.02;16.25;;;;;;;;;;4988639;28;95249;-70
2022/01/18 05:49:23;;;;;;;175.40;16.02;;;;;;;;;;4977883;28;96011;-70
2022/01/18 05:51:49;;;;;;;182.25;18.80;;;;;;;;;;4996586;28;93407;-70
2022/01/18 05:54:15;;;;;;;194.13;18.83;;;;;;;;;;4995322;28;94103;-70
2022/01/18 05:56:42;;;;;;;132.43;14.73;;;;;;;;;;4999477;28;94425;-70
2022/01/18 05:59:10;;;;;;;184.38;17.42;;;;;;;;;;4974002;28;94499;-70
2022/01/18 06:01:46;;;;;;;225.30;17.83;;;;;;;;;;4995382;28;92543;-70
2022/01/18 06:06:50;;;;;;;237.82;19.55;;;;;;;;;;4977132;28;93219;-70
2022/01/18 06:07:01;;;;;;;206.38;16.23;;;;;;;;;;4981912;28;92520;-70
2022/01/18 06:09:28;;;;;;;189.32;13.00;;;;;;;;;;4982512;28;93249;-70
2022/01/18 06:11:54;;;;;;;173.65;14.23;;;;;;;;;;4987762;28;96572;-69
2022/01/18 06:14:20;;;;;;;182.82;13.82;;;;;;;;;;4986014;28;93240;-69
2022/01/18 06:16:47;;;;;;;117.90;11.48;;;;;;;;;;4989584;28;94983;-69
2022/01/18 06:19:13;;;;;;;167.63;13.77;;;;;;;;;;4987832;28;93213;-69
2022/01/18 06:21:40;;;;;;;213.77;16.73;;;;;;;;;;4981559;28;93018;-69
2022/01/18 06:24:08;;;;;;;200.27;14.75;;;;;;;;;;4989032;28;94060;-69
2022/01/18 06:26:55;;;;;;;188.18;12.70;;;;;;;;;;4981438;28;93251;-69
2022/01/18 06:29:22;;;;;;;187.70;14.32;;;;;;;;;;4993903;28;93415;-70
2022/01/18 06:31:48;;;;;;;132.50;12.15;;;;;;;;;;4991326;28;94183;-69
2022/01/18 06:34:15;;;;;;;151.65;12.13;;;;;;;;;;4979933;28;93260;-70
2022/01/18 06:36:41;;;;;;;162.48;13.38;;;;;;;;;;4980841;28;96565;-69
2022/01/18 06:39:08;;;;;;;154.18;14.07;;;;;;;;;;4986231;28;94677;-69
2022/01/18 06:41:34;;;;;;;234.35;16.60;;;;;;;;;;4981177;28;92540;-69
2022/01/18 06:44:00;;;;;;;204.35;13.52;;;;;;;;;;4995810;28;94418;-69
2022/01/18 06:46:27;;;;;;;204.65;16.98;;;;;;;;;;4988038;28;92515;-69
2022/01/18 06:48:53;;;;;;;211.55;14.48;;;;;;;;;;4974524;28;93802;-69
2022/01/18 06:51:20;;;;;;;209.57;13.15;;;;;;;;;;4984060;28;93820;-69
2022/01/18 06:53:48;;;;;;;284.35;15.07;;;;;;;;;;4977558;28;91778;-70
2022/01/18 06:56:15;;;;;;;333.05;14.68;;;;;;;;;;4980049;28;93265;-69
2022/01/18 06:58:42;;;;;;;202.18;13.20;;;;;;;;;;4981793;28;93220;-69
2022/01/18 07:01:09;;;;;;;253.35;13.05;;;;;;;;;;4982660;28;95407;-69
2022/01/18 07:03:36;;;;;;;352.05;16.25;;;;;;;;;;4981940;28;96329;-70
2022/01/18 07:06:03;;;;;;;323.67;15.85;;;;;;;;;;4991203;28;93290;-70
2022/01/18 07:08:30;;;;;;;322.50;12.38;;;;;;;;;;4974591;28;93963;-70
2022/01/18 07:10:57;;;;;;;212.35;18.38;;;;;;;;;;4981862;28;92913;-69
2022/01/18 07:13:24;;;;;;;288.90;12.18;;;;;;;;;;4979038;28;92583;-69
2022/01/18 07:15:50;;;;;;;444.58;14.68;;;;;;;;;;4981586;28;96230;-69
2022/01/18 07:18:17;;;;;;;371.83;13.77;;;;;;;;;;4991566;28;92582;-69
2022/01/18 07:20:43;;;;;;;264.38;10.70;;;;;;;;;;4985726;28;92553;-69
2022/01/18 07:23:12;;;;;;;519.58;16.40;;;;;;;;;;4990893;28;92490;-69
2022/01/18 07:25:43;;;;;;;365.80;12.60;;;;;;;;;;4988904;28;97118;-69
2022/01/18 07:28:13;;;;;;;270.20;9.38;;;;;;;;;;4994866;28;92592;-69
2022/01/18 07:30:39;;;;;;;386.25;12.20;;;;;;;;;;4991286;28;94300;-69
2022/01/18 07:33:06;;;;;;;289.55;18.20;;;;;;;;;;4991462;28;92564;-69
2022/01/18 07:35:34;;;;;;;243.32;9.50;;;;;;;;;;4991187;28;93355;-69
2022/01/18 07:38:05;;;;;;;339.20;12.98;;;;;;;;;;4990649;28;93972;-69
2022/01/18 07:40:33;;;;;;;202.85;13.25;;;;;;;;;;4987763;28;92465;-69
2022/01/18 07:43:01;;;;;;;206.77;10.23;;;;;;;;;;4992590;28;94185;-69
2022/01/18 07:45:28;;;;;;;251.32;11.82;;;;;;;;;;4982463;28;94486;-69
2022/01/18 07:47:55;;;;;;;296.23;11.32;;;;;;;;;;4975360;28;92433;-69
2022/01/18 07:50:21;;;;;;;246.65;10.38;;;;;;;;;;4991268;28;95419;-69
2022/01/18 07:52:47;;;;;;;274.33;11.07;;;;;;;;;;4985096;28;92447;-70
2022/01/18 07:55:14;;;;;;;145.65;9.15;;;;;;;;;;4981865;28;96201;-71
2022/01/18 07:57:43;;;;;;;172.55;8.80;;;;;;;;;;4976568;28;94381;-69
2022/01/18 08:00:13;;;;;;;141.35;9.27;;;;;;;;;;4995817;28;94140;-70
2022/01/18 08:02:40;;;;;;;113.38;8.57;;;;;;;;;;4996638;28;94437;-70
2022/01/18 08:05:08;;;;;;;139.52;8.27;;;;;;;;;;5002225;28;94122;-70
2022/01/18 08:07:35;;;;;;;92.78;7.65;;;;;;;;;;4995320;28;91805;-70
2022/01/18 08:10:02;;;;;;;91.63;8.48;;;;;;;;;;4990772;28;92565;-69
2022/01/18 08:12:29;;;;;;;65.20;7.30;;;;;;;;;;5004009;28;94394;-70
2022/01/18 08:15:00;;;;;;;140.07;9.65;;;;;;;;;;4990297;28;94999;-69
2022/01/18 08:17:48;;;;;;;101.80;7.50;;;;;;;;;;5001828;28;93513;-69
2022/01/18 08:20:15;;;;;;;130.85;8.70;;;;;;;;;;4995443;28;92950;-69
2022/01/18 08:22:42;;;;;;;118.07;8.40;;;;;;;;;;4998955;28;93979;-70
2022/01/18 08:25:09;;;;;;;132.07;7.72;;;;;;;;;;4990381;28;93709;-69
2022/01/18 08:27:35;;;;;;;63.63;6.45;;;;;;;;;;5000878;28;94025;-70
2022/01/18 08:30:04;;;;;;;180.15;9.35;;;;;;;;;;4996227;28;94388;-70
2022/01/18 08:32:30;;;;;;;45.45;5.57;;;;;;;;;;5003754;28;92642;-70
2022/01/18 08:34:57;;;;;;;96.57;6.95;;;;;;;;;;4994867;28;92512;-71
2022/01/18 08:37:23;;;;;;;88.03;6.28;;;;;;;;;;4999212;28;94508;-70
2022/01/18 08:39:50;;;;;;;46.10;5.78;;;;;;;;;;4997832;28;94873;-70
2022/01/18 08:42:16;;;;;;;48.70;5.82;;;;;;;;;;4984296;28;95593;-70
2022/01/18 08:44:43;;;;;;;53.35;6.35;;;;;;;;;;4995774;28;94383;-70
2022/01/18 08:47:11;;;;;;;96.93;7.28;;;;;;;;;;4992908;28;93083;-70
2022/01/18 08:49:37;;;;;;;212.55;10.75;;;;;;;;;;4988885;28;94423;-70
2022/01/18 08:52:04;;;;;;;201.05;13.40;;;;;;;;;;4998669;28;93674;-70
2022/01/18 08:54:31;;;;;;;244.07;15.38;;;;;;;;;;4992279;28;92598;-70
2022/01/18 08:56:57;;;;;;;251.05;12.82;;;;;;;;;;4992512;28;93335;-70
2022/01/18 08:59:24;;;;;;;122.18;9.10;;;;;;;;;;4987636;28;93219;-70
2022/01/18 09:01:50;;;;;;;94.60;8.43;;;;;;;;;;4993688;28;94125;-70
2022/01/18 09:04:18;;;;;;;157.27;10.55;;;;;;;;;;4993355;28;97048;-71
2022/01/18 09:06:48;;;;;;;201.95;12.13;;;;;;;;;;4999266;28;93421;-71
2022/01/18 09:09:16;;;;;;;180.95;10.88;;;;;;;;;;4999754;28;93988;-70
2022/01/18 09:11:45;;;;;;;249.60;14.23;;;;;;;;;;4993508;28;92526;-69
2022/01/18 09:14:12;;;;;;;143.98;10.45;;;;;;;;;;4994958;28;93537;-70
2022/01/18 09:16:38;;;;;;;171.75;10.20;;;;;;;;;;4995008;28;94169;-70
2022/01/18 09:19:05;;;;;;;171.32;12.38;;;;;;;;;;4989811;28;94438;-70
2022/01/18 09:21:33;;;;;;;140.10;10.38;;;;;;;;;;4997069;28;95497;-70
2022/01/18 09:24:00;;;;;;;208.80;13.35;;;;;;;;;;4993426;28;94593;-70
2022/01/18 09:26:26;;;;;;;332.85;14.40;;;;;;;;;;4993417;28;92462;-70
2022/01/18 09:28:52;;;;;;;266.98;13.80;;;;;;;;;;4990773;28;95450;-70
2022/01/18 09:31:19;;;;;;;181.35;11.18;;;;;;;;;;4997526;28;93449;-70
2022/01/18 09:33:46;;;;;;;239.93;11.90;;;;;;;;;;4992156;28;92492;-70
2022/01/18 09:36:12;;;;;;;290.42;13.40;;;;;;;;;;4995503;28;94087;-71
2022/01/18 09:38:38;;;;;;;69.65;5.63;;;;;;;;;;4995574;28;92652;-72
2022/01/18 09:41:10;;;;;;;165.35;7.30;;;;;;;;;;4999676;28;93131;-70
2022/01/18 09:43:38;;;;;;;165.73;9.33;;;;;;;;;;4993605;28;94930;-70
2022/01/18 09:46:05;;;;;;;249.27;13.13;;;;;;;;;;4998610;28;93777;-70
2022/01/18 09:48:32;;;;;;;108.13;8.15;;;;;;;;;;4993271;28;93439;-71
2022/01/18 09:50:59;;;;;;;104.60;8.82;;;;;;;;;;4991888;28;93317;-70
2022/01/18 09:53:26;;;;;;;165.05;7.65;;;;;;;;;;4993592;28;95355;-70
2022/01/18 09:55:53;;;;;;;147.48;7.78;;;;;;;;;;4997749;28;96436;-71
2022/01/18 09:58:20;;;;;;;149.65;7.80;;;;;;;;;;4993518;28;94513;-71
2022/01/18 10:00:48;;;;;;;146.35;7.60;;;;;;;;;;5000457;28;93213;-71
2022/01/18 10:03:25;;;;;;;160.93;8.57;;;;;;;;;;4995181;28;94352;-71
2022/01/18 10:05:52;;;;;;;129.93;8.88;;;;;;;;;;4992479;28;93051;-70
2022/01/18 10:08:19;;;;;;;144.23;9.80;;;;;;;;;;4994045;28;95814;-69
2022/01/18 10:10:49;;;;;;;173.63;8.32;;;;;;;;;;5005783;28;94056;-75
2022/01/18 10:13:21;;;;;;;102.03;7.45;;;;;;;;;;4998395;28;92528;-70
2022/01/18 10:16:07;;;;;;;114.18;6.47;;;;;;;;;;4985559;28;93910;-70
2022/01/18 10:18:48;;;;;;;189.30;8.32;;;;;;;;;;4998329;28;96743;-70
2022/01/18 10:21:24;;;;;;;103.05;7.78;;;;;;;;;;4996125;28;92482;-70
2022/01/18 10:23:51;;;;;;;158.38;8.20;;;;;;;;;;4996045;28;93160;-71
2022/01/18 10:26:27;;;;;;;284.52;13.02;;;;;;;;;;4991617;28;92547;-70
2022/01/18 10:29:04;;;;;;;258.00;12.05;;;;;;;;;;4992678;28;96400;-70
2022/01/18 10:31:39;;;;;;;208.68;10.32;;;;;;;;;;4989081;28;93935;-70
2022/01/18 10:37:03;;;;;;;117.00;9.63;;;;;;;;;;4990148;28;93758;-70
2022/01/18 10:39:40;;;;;;;161.07;10.55;;;;;;;;;;4993272;28;94468;-70
2022/01/18 10:42:26;;;;;;;148.35;10.63;;;;;;;;;;4990944;28;93977;-70
2022/01/18 10:45:04;;;;;;;168.95;12.75;;;;;;;;;;4990109;28;96558;-71
2022/01/18 10:47:31;;;;;;;181.70;11.20;;;;;;;;;;4991907;28;93365;-70
2022/01/18 10:50:05;;;;;;;211.05;11.57;;;;;;;;;;4990269;28;94748;-70
2022/01/18 10:52:31;;;;;;;256.13;12.98;;;;;;;;;;4992785;28;94283;-70
2022/01/18 10:54:58;;;;;;;165.43;14.18;;;;;;;;;;4986943;28;93167;-71
2022/01/18 10:57:30;;;;;;;136.20;11.15;;;;;;;;;;4991438;28;94756;-69
2022/01/18 10:59:57;;;;;;;184.30;11.10;;;;;;;;;;4990134;28;94200;-70
2022/01/18 11:02:24;;;;;;;119.93;11.30;;;;;;;;;;4991846;28;93265;-70
2022/01/18 11:04:55;;;;;;;214.60;14.07;;;;;;;;;;4989937;28;92512;-70
2022/01/18 11:07:23;;;;;;;111.40;15.75;;;;;;;;;;4989020;28;94911;-70
2022/01/18 11:09:51;;;;;;;140.80;19.40;;;;;;;;;;4993201;28;96156;-70
2022/01/18 11:12:20;;;;;;;185.18;17.05;;;;;;;;;;4988216;28;93584;-71
2022/01/18 11:14:51;;;;;;;129.20;12.15;;;;;;;;;;4989174;28;92702;-70
2022/01/18 11:17:24;;;;;;;160.60;11.13;;;;;;;;;;4998522;28;93880;-71
2022/01/18 11:19:51;;;;;;;16.70;9.02;;;;;;;;;;4988863;28;93913;-70
2022/01/18 11:22:18;;;;;;;32.28;10.18;;;;;;;;;;4991253;28;92870;-70
2022/01/18 11:24:45;;;;;;;94.25;10.35;;;;;;;;;;4987038;28;93927;-70
2022/01/18 11:27:14;;;;;;;101.47;11.45;;;;;;;;;;4991300;28;92663;-71
2022/01/18 11:29:42;;;;;;;123.72;12.50;;;;;;;;;;4990435;28;92511;-70
2022/01/18 11:32:09;;;;;;;97.45;10.77;;;;;;;;;;4990913;28;93862;-70
2022/01/18 11:34:36;;;;;;;50.25;12.02;;;;;;;;;;4990875;28;95471;-71
2022/01/18 11:37:13;;;;;;;76.55;11.48;;;;;;;;;;4993838;28;95530;-70
2022/01/18 11:39:40;;;;;;;55.80;10.75;;;;;;;;;;4991987;28;94569;-70
2022/01/18 11:42:12;;;;;;;139.35;12.52;;;;;;;;;;4982960;28;93531;-70
2022/01/18 11:44:40;;;;;;;78.78;12.18;;;;;;;;;;4989978;28;92983;-70
2022/01/18 11:47:08;;;;;;;87.70;12.00;;;;;;;;;;4981920;28;94282;-69
2022/01/18 11:49:36;;;;;;;60.55;12.35;;;;;;;;;;4992481;28;92554;-70
2022/01/18 11:52:09;;;;;;;44.90;12.35;;;;;;;;;;5008826;28;92933;-71
2022/01/18 11:55:05;;;;;;;87.72;14.13;;;;;;;;;;4991141;28;93077;-70
2022/01/18 11:57:30;;;;;;;114.40;13.02;;;;;;;;;;4990911;28;94705;-70
2022/01/18 12:00:00;;;;;;;83.72;13.38;;;;;;;;;;4988939;28;96162;-70
2022/01/18 12:02:29;;;;;;;42.05;13.75;;;;;;;;;;4992226;28;92523;-70
2022/01/18 12:05:03;;;;;;;94.25;14.30;;;;;;;;;;4974638;28;94247;-69
2022/01/18 12:07:33;;;;;;;78.65;12.23;;;;;;;;;;4989972;28;94429;-70
2022/01/18 12:10:00;;;;;;;55.08;11.68;;;;;;;;;;4980567;28;92577;-70
2022/01/18 12:12:39;;;;;;;56.83;11.77;;;;;;;;;;4971398;28;95011;-69
2022/01/18 12:15:23;;;;;;;49.78;11.23;;;;;;;;;;4988261;28;92478;-71
2022/01/18 12:17:49;;;;;;;27.67;11.07;;;;;;;;;;4986362;28;93954;-70
2022/01/18 12:20:34;;;;;;;46.75;10.23;;;;;;;;;;4986642;28;93233;-70
2022/01/18 12:23:05;;;;;;;21.42;9.13;;;;;;;;;;4978347;28;93356;-70
2022/01/18 12:25:34;;;;;;;48.92;9.90;;;;;;;;;;4989802;28;95016;-69
2022/01/18 12:28:21;;;;;;;15.57;9.38;;;;;;;;;;4991021;28;94122;-70
2022/01/18 12:31:05;;;;;;;61.97;10.80;;;;;;;;;;4993004;28;92594;-70
2022/01/18 12:33:44;;;;;;;50.45;9.25;;;;;;;;;;4995788;28;93312;-69
2022/01/18 12:36:26;;;;;;;21.20;8.82;;;;;;;;;;5003237;28;94281;-70
2022/01/18 12:38:59;;;;;;;64.40;12.52;;;;;;;;;;4991305;28;92541;-70
2022/01/18 12:41:41;;;;;;;136.13;13.05;;;;;;;;;;4995717;28;92820;-69
2022/01/18 12:44:24;;;;;;;50.10;12.00;;;;;;;;;;4997758;28;92153;-71
2022/01/18 12:46:50;;;;;;;50.63;12.55;;;;;;;;;;4995216;28;93428;-71
2022/01/18 12:49:17;;;;;;;48.50;13.48;;;;;;;;;;4992866;28;94077;-71
2022/01/18 12:52:04;;;;;;;55.45;12.00;;;;;;;;;;4989634;28;95456;-71
2022/01/18 12:54:34;;;;;;;33.38;12.45;;;;;;;;;;4993623;28;95900;-70
2022/01/18 12:57:13;;;;;;;81.32;13.35;;;;;;;;;;4980781;28;94570;-70
2022/01/18 12:59:58;;;;;;;70.35;14.38;;;;;;;;;;4994374;28;92431;-71
2022/01/18 13:02:25;;;;;;;52.88;14.73;;;;;;;;;;4996853;28;94260;-71
2022/01/18 13:04:55;;;;;;;53.90;15.15;;;;;;;;;;4994696;28;92553;-71
2022/01/18 13:07:21;;;;;;;40.65;15.38;;;;;;;;;;4996092;28;93446;-71
2022/01/18 13:09:58;;;;;;;85.00;16.95;;;;;;;;;;4995962;28;92330;-71
2022/01/18 13:12:31;;;;;;;85.85;19.08;;;;;;;;;;4985009;28;92546;-70
2022/01/18 13:14:59;;;;;;;50.20;18.63;;;;;;;;;;4985650;28;94344;-71
2022/01/18 13:23:44;;;;;;;82.95;23.88;;;;;;;;;;5001527;28;94036;-75
2022/01/18 13:26:10;;;;;;;77.85;25.88;;;;;;;;;;5004710;28;93204;-71
2022/01/18 13:28:38;;;;;;;74.82;25.25;;;;;;;;;;4993586;28;93311;-71
2022/01/18 13:31:23;;;;;;;76.88;25.95;;;;;;;;;;4988685;28;94917;-71
2022/01/18 13:33:50;;;;;;;69.13;26.77;;;;;;;;;;4985299;28;93036;-71
2022/01/18 13:36:16;;;;;;;76.10;26.40;;;;;;;;;;4993996;28;93342;-71
2022/01/18 13:38:43;;;;;;;78.15;27.75;;;;;;;;;;5000930;28;92697;-71
2022/01/18 13:41:12;;;;;;;79.90;29.77;;;;;;;;;;4995901;28;92624;-71
2022/01/18 13:43:38;;;;;;;67.32;28.05;;;;;;;;;;5012175;28;94869;-71
2022/01/18 13:46:05;;;;;;;72.35;27.65;;;;;;;;;;5014927;28;94164;-71
2022/01/18 13:48:32;;;;;;;83.93;30.48;;;;;;;;;;5003399;28;93766;-71
2022/01/18 13:51:07;;;;;;;70.63;25.65;;;;;;;;;;4992811;28;94264;-71
2022/01/18 13:53:35;;;;;;;69.03;25.08;;;;;;;;;;5009812;28;94789;-70
2022/01/18 13:56:03;;;;;;;69.15;24.95;;;;;;;;;;4994064;28;94533;-71
2022/01/18 13:58:33;;;;;;;70.80;25.48;;;;;;;;;;4972574;28;93192;-72
2022/01/18 14:01:08;;;;;;;64.32;23.35;;;;;;;;;;4997455;28;92460;-73
2022/01/18 14:03:39;;;;;;;80.07;26.88;;;;;;;;;;5007294;28;94032;-72
2022/01/18 14:06:07;;;;;;;69.72;26.88;;;;;;;;;;4998044;28;94206;-71
2022/01/18 14:08:39;;;;;;;;;;;;;;;;;;4999798;28;96082;-71
2022/01/18 14:11:07;;;;;;;65.50;25.35;;;;;;;;;;4996412;28;124289;-74
2022/01/18 14:13:37;;;;;;;68.70;24.77;;;;;;;;;;5006018;28;92543;-74
2022/01/18 14:16:21;;;;;;;74.65;26.23;;;;;;;;;;4996508;28;93892;-72
2022/01/18 14:18:51;;;;;;;77.50;29.02;;;;;;;;;;4995924;28;93543;-73
2022/01/18 14:21:24;;;;;;;71.40;24.88;;;;;;;;;;5004761;28;92675;-73
2022/01/18 14:24:04;;;;;;;70.22;23.88;;;;;;;;;;4999249;28;93321;-73
2022/01/18 14:26:30;;;;;;;67.65;22.67;;;;;;;;;;5005949;28;93051;-71
2022/01/18 14:29:00;;;;;;;60.85;23.90;;;;;;;;;;5008585;28;92480;-71
2022/01/18 14:31:27;;;;;;;66.57;21.50;;;;;;;;;;5008610;28;94450;-71
2022/01/18 14:33:53;;;;;;;59.55;20.63;;;;;;;;;;5006956;28;95288;-72
2022/01/18 14:36:19;;;;;;;61.13;19.90;;;;;;;;;;5009396;28;95601;-72
2022/01/18 14:38:46;;;;;;;57.72;19.08;;;;;;;;;;5002782;28;93874;-72
2022/01/18 14:41:20;;;;;;;58.13;20.27;;;;;;;;;;5005859;28;92500;-72
2022/01/18 14:43:46;;;;;;;48.38;17.55;;;;;;;;;;5011482;28;94033;-72
2022/01/18 14:46:47;;;;;;;58.45;19.95;;;;;;;;;;5010137;28;92701;-72
2022/01/18 14:49:11;;;;;;;65.45;19.88;;;;;;;;;;5006686;28;93348;-72
2022/01/18 14:51:38;;;;;;;54.35;19.83;;;;;;;;;;4990942;28;93149;-72
2022/01/18 14:54:07;;;;;;;48.97;19.50;;;;;;;;;;4993918;28;93389;-72
2022/01/18 14:56:50;;;;;;;56.40;20.05;;;;;;;;;;4980383;28;94094;-72
2022/01/18 14:59:16;;;;;;;57.53;21.25;;;;;;;;;;4989380;28;96787;-72
2022/01/18 15:01:48;;;;;;;52.53;20.23;;;;;;;;;;4993888;28;92601;-72
2022/01/18 15:04:15;;;;;;;72.45;22.60;;;;;;;;;;4992851;28;94380;-72
2022/01/18 15:06:41;;;;;;;72.45;24.10;;;;;;;;;;4989982;28;94425;-72
2022/01/18 15:09:07;;;;;;;75.20;22.73;;;;;;;;;;4986349;28;92472;-72
2022/01/18 15:11:36;;;;;;;56.83;21.55;;;;;;;;;;4997031;28;93190;-72
2022/01/18 15:14:04;;;;;;;65.47;25.25;;;;;;;;;;4996345;28;94093;-72
2022/01/18 15:16:30;;;;;;;71.50;23.15;;;;;;;;;;4994750;28;93429;-72
2022/01/18 15:18:56;;;;;;;54.45;21.42;;;;;;;;;;4996608;28;93253;-72
2022/01/18 15:21:24;;;;;;;51.45;22.98;;;;;;;;;;4998050;28;92524;-72
2022/01/18 15:23:51;;;;;;;64.20;24.08;;;;;;;;;;4990139;28;94896;-72
2022/01/18 15:26:17;;;;;;;64.20;24.65;;;;;;;;;;4999789;28;94183;-72
2022/01/18 15:28:44;;;;;;;68.80;24.38;;;;;;;;;;4999585;28;93022;-72
2022/01/18 15:31:10;;;;;;;53.03;22.73;;;;;;;;;;5002543;28;94663;-72
2022/01/18 15:33:36;;;;;;;53.90;21.52;;;;;;;;;;4996904;28;94310;-70
2022/01/18 15:36:03;;;;;;;59.03;21.08;;;;;;;;;;4991871;28;93293;-70
2022/01/18 15:38:29;;;;;;;59.13;23.27;;;;;;;;;;4985772;28;93968;-70
2022/01/18 15:40:56;;;;;;;60.70;23.08;;;;;;;;;;4992221;28;91722;-71
2022/01/18 15:43:24;;;;;;;49.90;21.25;;;;;;;;;;4989514;28;94002;-70
2022/01/18 15:45:51;;;;;;;66.13;22.73;;;;;;;;;;4991282;28;95336;-71
2022/01/18 15:48:17;;;;;;;56.28;22.35;;;;;;;;;;4989159;28;96027;-71
2022/01/18 15:50:44;;;;;;;57.80;22.40;;;;;;;;;;4985124;28;96375;-70